createdAt,value
2023-02-07T00:00:21.078Z,52.00
2023-02-07T00:01:08.094Z,52.00
2023-02-07T00:01:51.386Z,36.00
2023-02-07T00:02:36.016Z,33.99
2023-02-07T00:03:21.005Z,15.00
2023-02-07T00:04:06.154Z,9.00
2023-02-07T00:04:51.106Z,46.00
2023-02-07T00:05:36.567Z,46.00
2023-02-07T00:06:21.478Z,47.00
2023-02-07T00:07:06.573Z,47.00
2023-02-07T00:07:51.367Z,46.00
2023-02-07T00:08:36.683Z,44.00
2023-02-07T00:09:21.523Z,44.00
2023-02-07T00:10:07.192Z,10.11
2023-02-07T00:10:52.145Z,46.00
2023-02-07T00:11:36.826Z,46.00
2023-02-07T00:12:22.234Z,46.00
2023-02-07T00:13:07.166Z,44.00
2023-02-07T00:13:52.414Z,44.00
2023-02-07T00:14:37.024Z,44.00
2023-02-07T00:15:22.339Z,44.00
2023-02-07T00:16:07.596Z,44.00
2023-02-07T00:16:52.853Z,44.00
2023-02-07T00:17:37.315Z,44.00
2023-02-07T00:18:21.952Z,47.00
2023-02-07T00:19:08.205Z,47.00
2023-02-07T00:19:52.555Z,43.00
2023-02-07T00:20:37.292Z,41.00
2023-02-07T00:21:22.722Z,41.00
2023-02-07T00:22:07.787Z,44.00
2023-02-07T00:22:52.370Z,47.00
2023-02-07T00:23:39.345Z,47.00
2023-02-07T00:24:22.761Z,40.00
2023-02-07T00:25:08.299Z,47.00
2023-02-07T00:25:52.435Z,24.97
2023-02-07T00:26:38.430Z,24.97
2023-02-07T00:27:22.902Z,40.00
2023-02-07T00:28:08.352Z,40.00
2023-02-07T00:28:53.087Z,40.00
2023-02-07T00:29:38.265Z,39.00
2023-02-07T00:30:23.250Z,43.00
2023-02-07T00:31:08.621Z,43.00
2023-02-07T00:31:53.525Z,42.00
2023-02-07T00:32:38.519Z,25.60
2023-02-07T00:33:23.387Z,47.00
2023-02-07T00:34:08.342Z,15.78
2023-02-07T00:34:53.532Z,42.00
2023-02-07T00:35:38.506Z,44.00
2023-02-07T00:36:23.345Z,45.00
2023-02-07T00:37:08.510Z,43.00
2023-02-07T00:37:53.476Z,46.00
2023-02-07T00:38:38.743Z,46.00
2023-02-07T00:39:23.739Z,45.00
2023-02-07T00:40:08.943Z,43.00
2023-02-07T00:40:53.773Z,43.00
2023-02-07T00:41:38.637Z,46.00
2023-02-07T00:42:23.695Z,45.00
2023-02-07T00:43:09.147Z,45.00
2023-02-07T00:43:54.993Z,45.00
2023-02-07T00:44:39.092Z,45.00
2023-02-07T00:45:24.945Z,49.00
2023-02-07T00:46:09.005Z,54.00
2023-02-07T00:46:54.141Z,55.00
2023-02-07T00:47:39.225Z,51.00
2023-02-07T00:48:24.484Z,53.00
2023-02-07T00:49:09.006Z,50.00
2023-02-07T00:49:54.158Z,24.30
2023-02-07T00:50:40.656Z,55.00
2023-02-07T00:51:24.478Z,55.00
2023-02-07T00:52:09.598Z,55.00
2023-02-07T00:52:54.297Z,54.00
2023-02-07T00:53:39.713Z,54.00
2023-02-07T00:54:24.707Z,50.00
2023-02-07T00:55:10.524Z,51.00
2023-02-07T00:55:54.505Z,53.00
2023-02-07T00:56:39.786Z,53.00
2023-02-07T00:57:24.680Z,50.00
2023-02-07T00:58:10.089Z,51.00
2023-02-07T00:58:55.131Z,53.00
2023-02-07T00:59:39.890Z,53.00
2023-02-07T01:00:24.907Z,33.62
2023-02-07T01:01:10.279Z,53.00
2023-02-07T01:01:55.372Z,51.00
2023-02-07T01:02:40.301Z,48.00
2023-02-07T01:03:25.450Z,49.00
2023-02-07T01:04:10.341Z,47.00
2023-02-07T01:04:55.599Z,50.00
2023-02-07T01:05:40.354Z,52.00
2023-02-07T01:06:25.556Z,54.00
2023-02-07T01:07:10.512Z,53.00
2023-02-07T01:07:55.620Z,52.00
2023-02-07T01:08:40.451Z,53.99
2023-02-07T01:09:25.871Z,48.00
2023-02-07T01:10:10.481Z,49.00
2023-02-07T01:10:55.767Z,50.00
2023-02-07T01:11:41.137Z,48.00
2023-02-07T01:12:25.944Z,48.00
2023-02-07T01:13:11.678Z,48.00
2023-02-07T01:13:56.380Z,48.00
2023-02-07T01:14:41.027Z,47.00
2023-02-07T01:15:26.735Z,46.00
2023-02-07T01:16:11.370Z,46.00
2023-02-07T01:16:57.643Z,46.00
2023-02-07T01:17:42.504Z,45.00
2023-02-07T01:18:26.620Z,45.99
2023-02-07T01:19:11.714Z,48.00
2023-02-07T01:19:56.538Z,48.00
2023-02-07T01:20:41.391Z,48.00
2023-02-07T01:21:26.568Z,49.00
2023-02-07T01:22:11.661Z,48.00
2023-02-07T01:22:56.442Z,49.00
2023-02-07T01:23:41.913Z,48.00
2023-02-07T01:24:26.764Z,48.00
2023-02-07T01:25:13.734Z,48.00
2023-02-07T01:25:57.126Z,46.00
2023-02-07T01:26:42.167Z,47.00
2023-02-07T01:27:27.088Z,48.00
2023-02-07T01:28:12.174Z,48.00
2023-02-07T01:28:57.115Z,46.00
2023-02-07T01:29:42.362Z,46.00
2023-02-07T01:30:27.210Z,48.00
2023-02-07T01:31:12.936Z,47.00
2023-02-07T01:31:57.704Z,47.00
2023-02-07T01:32:42.379Z,50.00
2023-02-07T01:33:27.238Z,48.00
2023-02-07T01:34:12.534Z,48.00
2023-02-07T01:34:57.550Z,48.00
2023-02-07T01:35:43.832Z,48.00
2023-02-07T01:36:27.692Z,43.00
2023-02-07T01:37:12.390Z,45.00
2023-02-07T01:37:58.128Z,47.00
2023-02-07T01:38:42.943Z,45.00
2023-02-07T01:39:28.244Z,46.00
2023-02-07T01:40:13.433Z,46.00
2023-02-07T01:40:58.200Z,47.00
2023-02-07T01:41:42.665Z,43.00
2023-02-07T01:42:27.986Z,43.00
2023-02-07T01:43:13.251Z,45.00
2023-02-07T01:43:58.301Z,45.00
2023-02-07T01:44:43.173Z,43.00
2023-02-07T01:45:28.505Z,45.00
2023-02-07T01:46:13.452Z,42.00
2023-02-07T01:46:58.562Z,41.00
2023-02-07T01:47:43.400Z,39.00
2023-02-07T01:48:28.713Z,37.00
2023-02-07T01:49:13.636Z,38.00
2023-02-07T01:49:58.793Z,41.00
2023-02-07T01:50:43.837Z,40.00
2023-02-07T01:51:30.118Z,40.00
2023-02-07T01:52:19.537Z,22.00
2023-02-07T01:52:59.113Z,22.00
2023-02-07T01:53:44.012Z,44.00
2023-02-07T01:54:29.165Z,42.00
2023-02-07T01:55:14.524Z,44.00
2023-02-07T01:55:59.125Z,43.00
2023-02-07T01:56:44.330Z,43.00
2023-02-07T01:57:29.202Z,42.00
2023-02-07T01:58:14.550Z,43.00
2023-02-07T01:58:59.046Z,43.00
2023-02-07T01:59:44.420Z,42.00
2023-02-07T02:00:29.258Z,42.00
2023-02-07T02:01:14.014Z,40.00
2023-02-07T02:01:59.902Z,38.00
2023-02-07T02:02:44.635Z,39.00
2023-02-07T02:03:29.547Z,38.00
2023-02-07T02:04:15.599Z,36.00
2023-02-07T02:04:59.597Z,36.00
2023-02-07T02:05:44.744Z,38.00
2023-02-07T02:06:29.584Z,37.00
2023-02-07T02:07:14.698Z,36.00
2023-02-07T02:07:59.477Z,38.00
2023-02-07T02:08:44.681Z,35.00
2023-02-07T02:09:29.729Z,36.00
2023-02-07T02:10:15.043Z,39.00
2023-02-07T02:10:59.640Z,38.00
2023-02-07T02:11:45.008Z,38.00
2023-02-07T02:12:29.882Z,37.00
2023-02-07T02:13:15.112Z,38.00
2023-02-07T02:14:00.184Z,37.00
2023-02-07T02:14:44.980Z,38.00
2023-02-07T02:15:29.769Z,38.00
2023-02-07T02:16:16.088Z,38.00
2023-02-07T02:17:00.809Z,38.00
2023-02-07T02:17:45.348Z,38.00
2023-02-07T02:18:30.948Z,38.00
2023-02-07T02:19:15.968Z,38.00
2023-02-07T02:20:00.932Z,38.00
2023-02-07T02:20:46.500Z,38.00
2023-02-07T02:21:30.442Z,38.00
2023-02-07T02:22:15.502Z,40.00
2023-02-07T02:23:01.870Z,40.00
2023-02-07T02:23:45.508Z,41.00
2023-02-07T02:24:30.645Z,42.00
2023-02-07T02:25:16.840Z,42.00
2023-02-07T02:26:02.107Z,42.00
2023-02-07T02:26:46.061Z,42.00
2023-02-07T02:27:31.399Z,42.00
2023-02-07T02:28:16.350Z,41.00
2023-02-07T02:29:01.836Z,41.00
2023-02-07T02:29:46.180Z,41.00
2023-02-07T02:30:31.401Z,41.00
2023-02-07T02:31:16.572Z,41.00
2023-02-07T02:32:03.126Z,41.00
2023-02-07T02:32:46.075Z,41.00
2023-02-07T02:33:31.554Z,41.00
2023-02-07T02:34:16.655Z,41.00
2023-02-07T02:35:01.888Z,41.00
2023-02-07T02:35:46.919Z,41.00
2023-02-07T02:36:31.569Z,41.00
2023-02-07T02:37:17.274Z,41.00
2023-02-07T02:38:02.771Z,41.00
2023-02-07T02:38:46.936Z,41.00
2023-02-07T02:39:32.188Z,41.00
2023-02-07T02:40:17.359Z,41.00
2023-02-07T02:41:02.640Z,41.00
2023-02-07T02:41:46.954Z,41.00
2023-02-07T02:42:32.138Z,41.00
2023-02-07T02:43:16.960Z,41.00
2023-02-07T02:44:02.326Z,41.00
2023-02-07T02:44:47.586Z,41.00
2023-02-07T02:45:32.129Z,41.00
2023-02-07T02:46:17.453Z,41.00
2023-02-07T02:47:02.341Z,41.00
2023-02-07T02:47:47.673Z,41.00
2023-02-07T02:48:34.618Z,41.00
2023-02-07T02:49:17.717Z,41.00
2023-02-07T02:50:02.679Z,41.00
2023-02-07T02:50:47.924Z,41.00
2023-02-07T02:51:32.552Z,33.00
2023-02-07T02:52:18.111Z,37.00
2023-02-07T02:53:02.611Z,34.00
2023-02-07T02:53:47.448Z,37.00
2023-02-07T02:54:32.613Z,39.00
2023-02-07T02:55:19.519Z,40.00
2023-02-07T02:56:02.935Z,2.33
2023-02-07T02:56:47.912Z,42.00
2023-02-07T02:57:32.948Z,42.00
2023-02-07T02:58:19.194Z,39.00
2023-02-07T02:59:03.797Z,39.00
2023-02-07T02:59:48.281Z,23.00
2023-02-07T03:00:32.997Z,21.00
2023-02-07T03:01:18.251Z,28.00
2023-02-07T03:02:03.374Z,28.00
2023-02-07T03:02:48.122Z,28.00
2023-02-07T03:03:33.181Z,28.00
2023-02-07T03:04:18.775Z,28.00
2023-02-07T03:05:03.217Z,28.00
2023-02-07T03:05:48.254Z,28.00
2023-02-07T03:06:33.631Z,28.00
2023-02-07T03:07:18.194Z,1.78
2023-02-07T03:08:04.459Z,1.78
2023-02-07T03:08:50.419Z,1.78
2023-02-07T03:09:35.484Z,1.78
2023-02-07T03:10:18.905Z,1.78
2023-02-07T03:11:04.012Z,1.78
2023-02-07T03:11:48.809Z,1.78
2023-02-07T03:12:33.874Z,1.78
2023-02-07T03:13:19.435Z,1.78
2023-02-07T03:14:04.385Z,1.78
2023-02-07T03:14:49.333Z,1.78
2023-02-07T03:15:34.302Z,1.78
2023-02-07T03:16:19.151Z,1.78
2023-02-07T03:17:04.098Z,1.78
2023-02-07T03:17:51.103Z,30.41
2023-02-07T03:18:34.000Z,30.41
2023-02-07T03:19:19.625Z,30.41
2023-02-07T03:20:04.866Z,30.41
2023-02-07T03:20:49.786Z,42.00
2023-02-07T03:21:34.178Z,40.00
2023-02-07T03:22:19.443Z,40.00
2023-02-07T03:23:04.552Z,40.00
2023-02-07T03:23:49.807Z,40.00
2023-02-07T03:24:34.784Z,40.00
2023-02-07T03:25:20.033Z,40.00
2023-02-07T03:26:04.567Z,40.00
2023-02-07T03:26:49.229Z,37.00
2023-02-07T03:27:35.203Z,37.00
2023-02-07T03:28:19.882Z,35.00
2023-02-07T03:29:05.098Z,35.00
2023-02-07T03:29:50.091Z,38.00
2023-02-07T03:30:35.129Z,40.00
2023-02-07T03:31:20.409Z,40.00
2023-02-07T03:32:05.319Z,40.00
2023-02-07T03:32:50.527Z,40.00
2023-02-07T03:33:35.572Z,40.00
2023-02-07T03:34:20.473Z,40.00
2023-02-07T03:35:05.452Z,40.00
2023-02-07T03:35:50.598Z,40.00
2023-02-07T03:36:35.558Z,40.00
2023-02-07T03:37:20.860Z,40.00
2023-02-07T03:38:05.872Z,40.00
2023-02-07T03:38:50.658Z,40.00
2023-02-07T03:39:36.051Z,40.00
2023-02-07T03:40:21.862Z,40.00
2023-02-07T03:41:06.243Z,40.00
2023-02-07T03:41:51.154Z,40.00
2023-02-07T03:42:36.113Z,40.00
2023-02-07T03:43:21.227Z,40.00
2023-02-07T03:44:06.117Z,40.00
2023-02-07T03:44:51.466Z,40.00
2023-02-07T03:45:36.566Z,40.00
2023-02-07T03:46:21.516Z,40.00
2023-02-07T03:47:06.242Z,40.00
2023-02-07T03:47:51.070Z,40.00
2023-02-07T03:48:38.741Z,40.00
2023-02-07T03:49:21.341Z,41.00
2023-02-07T03:50:06.569Z,42.00
2023-02-07T03:50:51.316Z,42.00
2023-02-07T03:51:36.487Z,39.00
2023-02-07T03:52:21.641Z,39.00
2023-02-07T03:53:06.919Z,42.00
2023-02-07T03:53:51.956Z,42.00
2023-02-07T03:54:36.857Z,42.00
2023-02-07T03:55:22.012Z,42.00
2023-02-07T03:56:06.699Z,42.00
2023-02-07T03:56:52.195Z,43.00
2023-02-07T03:57:36.817Z,43.00
2023-02-07T03:59:06.962Z,42.00
2023-02-07T03:59:52.322Z,42.00
2023-02-07T04:00:37.262Z,41.00
2023-02-07T04:01:22.445Z,40.00
2023-02-07T04:02:07.527Z,40.00
2023-02-07T04:02:52.026Z,39.00
2023-02-07T04:03:37.079Z,39.00
2023-02-07T04:04:22.335Z,40.00
2023-02-07T04:05:07.263Z,40.00
2023-02-07T04:05:52.596Z,41.00
2023-02-07T04:06:37.718Z,41.00
2023-02-07T04:07:22.751Z,41.00
2023-02-07T04:08:07.528Z,41.00
2023-02-07T04:08:52.546Z,39.00
2023-02-07T04:09:37.597Z,39.00
2023-02-07T04:10:22.583Z,37.00
2023-02-07T04:11:08.121Z,37.00
2023-02-07T04:11:52.909Z,37.00
2023-02-07T04:12:37.781Z,37.00
2023-02-07T04:13:23.469Z,37.00
2023-02-07T04:14:08.018Z,37.00
2023-02-07T04:14:53.191Z,37.00
2023-02-07T04:15:38.444Z,37.00
2023-02-07T04:16:23.526Z,37.00
2023-02-07T04:17:08.202Z,37.00
2023-02-07T04:17:53.047Z,41.00
2023-02-07T04:18:38.197Z,40.00
2023-02-07T04:19:22.836Z,40.00
2023-02-07T04:20:08.219Z,40.00
2023-02-07T04:20:53.375Z,40.00
2023-02-07T04:21:38.507Z,40.00
2023-02-07T04:22:23.615Z,40.00
2023-02-07T04:23:08.343Z,40.00
2023-02-07T04:23:54.080Z,40.00
2023-02-07T04:24:40.539Z,40.00
2023-02-07T04:25:23.626Z,40.00
2023-02-07T04:26:08.814Z,40.00
2023-02-07T04:26:54.031Z,40.00
2023-02-07T04:27:39.220Z,40.00
2023-02-07T04:28:24.352Z,40.00
2023-02-07T04:29:09.203Z,40.00
2023-02-07T04:29:54.859Z,40.00
2023-02-07T04:30:39.347Z,40.00
2023-02-07T04:31:27.702Z,40.00
2023-02-07T04:32:09.010Z,40.00
2023-02-07T04:32:56.025Z,40.00
2023-02-07T04:33:39.481Z,40.00
2023-02-07T04:34:24.410Z,40.00
2023-02-07T04:35:09.696Z,40.00
2023-02-07T04:35:54.500Z,40.00
2023-02-07T04:36:39.354Z,40.00
2023-02-07T04:37:24.446Z,40.00
2023-02-07T04:38:09.583Z,40.00
2023-02-07T04:38:54.945Z,40.00
2023-02-07T04:39:39.579Z,40.00
2023-02-07T04:40:28.133Z,40.00
2023-02-07T04:41:09.792Z,40.00
2023-02-07T04:41:55.279Z,40.00
2023-02-07T04:42:39.958Z,40.00
2023-02-07T04:43:24.919Z,40.00
2023-02-07T04:44:09.711Z,40.00
2023-02-07T04:44:55.080Z,40.00
2023-02-07T04:45:40.393Z,40.00
2023-02-07T04:46:25.199Z,40.00
2023-02-07T04:47:10.008Z,40.00
2023-02-07T04:47:55.149Z,40.00
2023-02-07T04:48:40.360Z,40.00
2023-02-07T04:49:25.419Z,40.00
2023-02-07T04:50:10.159Z,40.00
2023-02-07T04:50:55.432Z,40.00
2023-02-07T04:51:40.434Z,40.00
2023-02-07T04:52:25.433Z,40.00
2023-02-07T04:53:10.351Z,40.00
2023-02-07T04:53:55.507Z,40.00
2023-02-07T04:54:40.604Z,40.00
2023-02-07T04:55:25.731Z,40.00
2023-02-07T04:56:10.519Z,40.00
2023-02-07T04:56:55.768Z,40.00
2023-02-07T04:57:40.617Z,40.00
2023-02-07T04:58:27.457Z,40.00
2023-02-07T04:59:12.280Z,40.00
2023-02-07T04:59:55.898Z,40.00
2023-02-07T05:00:40.754Z,40.00
2023-02-07T05:01:25.886Z,40.00
2023-02-07T05:02:11.006Z,40.00
2023-02-07T05:02:55.916Z,40.00
2023-02-07T05:03:40.711Z,40.00
2023-02-07T05:04:26.140Z,40.00
2023-02-07T05:05:11.316Z,38.00
2023-02-07T05:05:56.168Z,38.00
2023-02-07T05:06:41.325Z,38.00
2023-02-07T05:07:26.687Z,38.00
2023-02-07T05:08:11.662Z,38.00
2023-02-07T05:08:56.163Z,2.98
2023-02-07T05:09:41.040Z,1.70
2023-02-07T05:10:26.176Z,2.68
2023-02-07T05:11:11.353Z,2.68
2023-02-07T05:11:58.698Z,2.68
2023-02-07T05:12:41.358Z,38.00
2023-02-07T05:13:28.726Z,38.00
2023-02-07T05:14:11.341Z,32.00
2023-02-07T05:14:57.966Z,1.80
2023-02-07T05:15:41.594Z,11.00
2023-02-07T05:16:29.144Z,13.20
2023-02-07T05:17:12.099Z,13.20
2023-02-07T05:17:56.634Z,3.64
2023-02-07T05:18:41.598Z,36.00
2023-02-07T05:19:27.143Z,36.00
2023-02-07T05:20:12.369Z,37.00
2023-02-07T05:20:57.689Z,37.00
2023-02-07T05:21:43.888Z,37.00
2023-02-07T05:22:29.238Z,37.00
2023-02-07T05:23:12.306Z,37.00
2023-02-07T05:23:57.204Z,37.00
2023-02-07T05:24:42.290Z,37.00
2023-02-07T05:25:27.205Z,37.00
2023-02-07T05:26:12.681Z,31.00
2023-02-07T05:26:56.713Z,31.00
2023-02-07T05:27:42.799Z,32.00
2023-02-07T05:28:27.249Z,32.00
2023-02-07T05:29:12.711Z,32.00
2023-02-07T05:29:57.772Z,32.00
2023-02-07T05:30:43.098Z,32.00
2023-02-07T05:31:27.515Z,32.00
2023-02-07T05:32:12.636Z,29.00
2023-02-07T05:32:58.097Z,29.00
2023-02-07T05:33:42.786Z,29.00
2023-02-07T05:34:27.738Z,28.00
2023-02-07T05:35:12.940Z,28.00
2023-02-07T05:35:57.893Z,28.00
2023-02-07T05:36:42.747Z,28.00
2023-02-07T05:37:28.733Z,28.00
2023-02-07T05:38:13.333Z,28.00
2023-02-07T05:39:00.391Z,28.00
2023-02-07T05:39:46.101Z,28.00
2023-02-07T05:40:28.125Z,7.00
2023-02-07T05:41:15.086Z,7.00
2023-02-07T05:42:03.679Z,3.52
2023-02-07T05:42:49.047Z,3.47
2023-02-07T05:43:33.715Z,3.47
2023-02-07T05:44:19.040Z,3.41
2023-02-07T05:45:03.896Z,4.02
2023-02-07T05:45:47.748Z,4.02
2023-02-07T05:46:34.417Z,4.02
2023-02-07T05:47:19.618Z,4.02
2023-02-07T05:48:02.747Z,4.02
2023-02-07T05:48:43.752Z,47.00
2023-02-07T05:49:28.902Z,47.00
2023-02-07T05:50:13.811Z,47.00
2023-02-07T05:50:59.280Z,47.00
2023-02-07T05:51:44.072Z,47.00
2023-02-07T05:52:30.646Z,47.00
2023-02-07T05:53:13.796Z,16.00
2023-02-07T05:54:03.153Z,15.65
2023-02-07T05:54:49.313Z,14.12
2023-02-07T05:55:34.755Z,13.15
2023-02-07T05:56:20.762Z,11.35
2023-02-07T05:57:05.414Z,11.91
2023-02-07T05:57:49.919Z,13.15
2023-02-07T05:58:34.607Z,13.15
2023-02-07T05:59:21.595Z,11.63
2023-02-07T06:00:05.062Z,11.91
2023-02-07T06:00:49.886Z,13.15
2023-02-07T06:01:37.416Z,13.15
2023-02-07T06:02:26.195Z,13.15
2023-02-07T06:03:12.866Z,13.15
2023-02-07T06:03:50.432Z,13.15
2023-02-07T06:04:31.468Z,13.15
2023-02-07T06:05:16.751Z,13.15
2023-02-07T06:06:00.536Z,13.15
2023-02-07T06:06:46.395Z,13.15
2023-02-07T06:07:30.369Z,13.15
2023-02-07T06:08:15.309Z,13.15
2023-02-07T06:09:05.124Z,7.31
2023-02-07T06:09:50.733Z,7.31
2023-02-07T06:10:37.484Z,7.21
2023-02-07T06:11:20.918Z,7.21
2023-02-07T06:12:05.578Z,7.21
2023-02-07T06:12:45.448Z,7.21
2023-02-07T06:13:30.948Z,7.21
2023-02-07T06:14:19.279Z,6.58
2023-02-07T06:15:05.833Z,6.43
2023-02-07T06:15:51.012Z,6.31
2023-02-07T06:16:36.004Z,6.31
2023-02-07T06:17:20.905Z,6.31
2023-02-07T06:18:06.292Z,6.02
2023-02-07T06:18:51.118Z,5.21
2023-02-07T06:19:36.345Z,5.44
2023-02-07T06:20:21.574Z,5.44
2023-02-07T06:21:06.389Z,5.94
2023-02-07T06:21:51.240Z,5.94
2023-02-07T06:22:36.341Z,5.85
2023-02-07T06:23:21.576Z,5.85
2023-02-07T06:24:06.958Z,5.75
2023-02-07T06:24:51.670Z,5.65
2023-02-07T06:25:36.538Z,5.44
2023-02-07T06:26:21.826Z,5.44
2023-02-07T06:27:06.675Z,5.33
2023-02-07T06:27:51.332Z,5.44
2023-02-07T06:28:36.547Z,5.65
2023-02-07T06:29:21.922Z,5.85
2023-02-07T06:30:06.869Z,5.44
2023-02-07T06:30:51.328Z,5.44
2023-02-07T06:31:31.600Z,5.44
2023-02-07T06:32:16.380Z,43.00
2023-02-07T06:33:02.232Z,43.00
2023-02-07T06:33:46.202Z,44.00
2023-02-07T06:34:31.489Z,44.00
2023-02-07T06:35:17.056Z,44.00
2023-02-07T06:36:01.700Z,44.00
2023-02-07T06:36:46.662Z,44.00
2023-02-07T06:37:31.885Z,44.00
2023-02-07T06:38:16.976Z,44.00
2023-02-07T06:39:03.636Z,44.00
2023-02-07T06:39:46.734Z,44.00
2023-02-07T06:40:35.815Z,5.51
2023-02-07T06:41:22.613Z,4.85
2023-02-07T06:42:10.758Z,4.85
2023-02-07T06:42:57.908Z,4.85
2023-02-07T06:43:43.304Z,4.85
2023-02-07T06:44:23.660Z,4.85
2023-02-07T06:45:03.085Z,40.00
2023-02-07T06:45:47.009Z,40.00
2023-02-07T06:46:32.516Z,40.00
2023-02-07T06:47:16.950Z,46.00
2023-02-07T06:48:02.464Z,46.00
2023-02-07T06:48:47.131Z,43.00
2023-02-07T06:49:32.594Z,43.00
2023-02-07T06:50:17.649Z,43.00
2023-02-07T06:51:02.658Z,43.00
2023-02-07T06:51:47.743Z,43.00
2023-02-07T06:52:33.003Z,43.00
2023-02-07T06:53:17.589Z,43.00
2023-02-07T06:54:03.189Z,43.00
2023-02-07T06:54:48.298Z,43.00
2023-02-07T06:55:32.964Z,43.00
2023-02-07T06:56:18.809Z,43.00
2023-02-07T06:57:04.965Z,43.00
2023-02-07T06:57:47.833Z,43.00
2023-02-07T06:58:33.829Z,43.00
2023-02-07T06:59:18.666Z,43.00
2023-02-07T07:00:03.059Z,43.00
2023-02-07T07:00:48.343Z,43.00
2023-02-07T07:01:33.055Z,43.00
2023-02-07T07:02:18.884Z,43.00
2023-02-07T07:03:03.548Z,43.00
2023-02-07T07:03:48.723Z,43.00
2023-02-07T07:04:34.042Z,43.00
2023-02-07T07:05:19.071Z,43.00
2023-02-07T07:06:03.548Z,43.00
2023-02-07T07:06:48.895Z,43.00
2023-02-07T07:07:34.115Z,43.00
2023-02-07T07:08:19.028Z,43.00
2023-02-07T07:09:04.641Z,43.00
2023-02-07T07:09:49.140Z,43.00
2023-02-07T07:10:35.064Z,43.00
2023-02-07T07:11:19.110Z,43.00
2023-02-07T07:12:03.784Z,43.00
2023-02-07T07:12:49.079Z,43.00
2023-02-07T07:13:34.198Z,43.00
2023-02-07T07:14:19.164Z,43.00
2023-02-07T07:15:04.104Z,43.00
2023-02-07T07:15:49.157Z,43.00
2023-02-07T07:16:34.425Z,43.00
2023-02-07T07:17:21.983Z,43.00
2023-02-07T07:18:04.970Z,43.00
2023-02-07T07:18:53.179Z,43.00
2023-02-07T07:19:34.347Z,8.37
2023-02-07T07:20:19.866Z,10.00
2023-02-07T07:21:08.658Z,9.85
2023-02-07T07:21:54.197Z,17.97
2023-02-07T07:22:37.850Z,19.05
2023-02-07T07:23:25.673Z,19.05
2023-02-07T07:24:10.477Z,17.85
2023-02-07T07:24:55.171Z,17.68
2023-02-07T07:25:40.369Z,18.01
2023-02-07T07:26:25.083Z,17.85
2023-02-07T07:27:10.158Z,18.29
2023-02-07T07:27:55.122Z,18.29
2023-02-07T07:28:40.939Z,18.01
2023-02-07T07:29:25.317Z,17.49
2023-02-07T07:30:10.917Z,17.68
2023-02-07T07:30:55.892Z,18.01
2023-02-07T07:31:42.176Z,15.24
2023-02-07T07:32:33.319Z,15.24
2023-02-07T07:33:05.178Z,15.24
2023-02-07T07:33:50.519Z,15.24
2023-02-07T07:34:35.373Z,15.24
2023-02-07T07:35:20.546Z,15.24
2023-02-07T07:36:05.402Z,15.24
2023-02-07T07:36:52.699Z,15.24
2023-02-07T07:37:37.136Z,15.24
2023-02-07T07:38:23.163Z,15.24
2023-02-07T07:39:07.857Z,15.24
2023-02-07T07:39:50.678Z,4.00
2023-02-07T07:40:39.715Z,3.78
2023-02-07T07:41:26.026Z,3.23
2023-02-07T07:42:11.158Z,3.04
2023-02-07T07:42:56.125Z,3.11
2023-02-07T07:43:41.031Z,3.29
2023-02-07T07:44:26.218Z,2.98
2023-02-07T07:45:11.205Z,3.23
2023-02-07T07:45:56.746Z,3.23
2023-02-07T07:46:42.472Z,2.69
2023-02-07T07:47:26.648Z,2.69
2023-02-07T07:48:13.383Z,2.69
2023-02-07T07:48:51.908Z,2.69
2023-02-07T07:49:36.601Z,2.69
2023-02-07T07:50:22.174Z,2.69
2023-02-07T07:51:06.700Z,2.69
2023-02-07T07:51:51.789Z,2.69
2023-02-07T07:52:40.306Z,2.91
2023-02-07T07:53:27.123Z,3.04
2023-02-07T07:54:09.199Z,3.04
2023-02-07T07:54:51.693Z,3.04
2023-02-07T07:55:40.964Z,3.29
2023-02-07T07:56:27.268Z,3.34
2023-02-07T07:57:12.406Z,3.11
2023-02-07T07:57:57.241Z,3.11
2023-02-07T07:58:39.380Z,3.11
2023-02-07T07:59:24.198Z,3.11
2023-02-07T08:00:09.268Z,3.11
2023-02-07T08:01:42.889Z,4.30
2023-02-07T08:02:22.560Z,4.30
2023-02-07T08:03:09.078Z,4.30
2023-02-07T08:03:57.890Z,3.27
2023-02-07T08:04:42.673Z,3.07
2023-02-07T08:06:12.652Z,3.20
2023-02-07T08:06:57.718Z,3.20
2023-02-07T08:07:43.189Z,3.20
2023-02-07T08:08:28.039Z,3.20
2023-02-07T08:09:12.980Z,2.82
2023-02-07T08:09:58.035Z,3.03
2023-02-07T08:10:43.145Z,2.93
2023-02-07T08:11:41.197Z,2.82
2023-02-07T08:12:13.076Z,2.93
2023-02-07T08:12:58.575Z,2.82
2023-02-07T08:13:43.689Z,2.57
2023-02-07T08:14:28.681Z,2.82
2023-02-07T08:15:12.176Z,2.82
2023-02-07T08:15:55.665Z,2.82
2023-02-07T08:16:41.903Z,4.80
2023-02-07T08:17:28.805Z,4.80
2023-02-07T08:18:13.919Z,4.59
2023-02-07T08:18:59.098Z,4.55
2023-02-07T08:19:44.533Z,4.55
2023-02-07T08:20:29.150Z,4.51
2023-02-07T08:21:11.536Z,17.29
2023-02-07T08:21:53.713Z,17.29
2023-02-07T08:22:42.543Z,5.01
2023-02-07T08:23:29.259Z,5.41
2023-02-07T08:24:14.108Z,5.35
2023-02-07T08:25:24.884Z,5.35
2023-02-07T08:26:41.476Z,16.59
2023-02-07T08:27:14.991Z,15.83
2023-02-07T08:29:29.925Z,16.42
2023-02-07T08:31:42.091Z,16.24
2023-02-07T08:31:47.892Z,15.83
2023-02-07T08:32:29.545Z,16.24
2023-02-07T08:33:15.624Z,16.24
2023-02-07T08:33:54.314Z,16.24
2023-02-07T08:35:29.867Z,24.71
2023-02-07T08:36:14.978Z,24.49
2023-02-07T08:36:54.901Z,24.49
2023-02-07T08:37:40.642Z,24.49
2023-02-07T08:38:26.297Z,24.49
2023-02-07T08:39:26.515Z,5.10
2023-02-07T08:40:00.292Z,5.17
2023-02-07T08:42:15.362Z,5.17
2023-02-07T08:43:00.357Z,5.25
2023-02-07T08:43:45.110Z,5.17
2023-02-07T08:44:25.058Z,5.17
2023-02-07T08:45:12.867Z,5.17
2023-02-07T08:46:00.857Z,4.85
2023-02-07T08:47:25.446Z,4.85
2023-02-07T08:48:10.511Z,4.85
2023-02-07T08:48:55.563Z,4.85
2023-02-07T08:49:40.836Z,4.85
2023-02-07T08:50:27.767Z,4.85
2023-02-07T08:51:10.840Z,4.85
2023-02-07T08:51:55.691Z,4.85
2023-02-07T08:52:40.723Z,4.85
2023-02-07T08:53:26.293Z,4.85
2023-02-07T08:54:11.441Z,4.85
2023-02-07T08:54:56.755Z,4.85
2023-02-07T08:55:40.970Z,4.85
2023-02-07T08:56:26.497Z,4.85
2023-02-07T08:57:11.140Z,4.85
2023-02-07T08:57:56.144Z,4.85
2023-02-07T08:58:41.497Z,4.85
2023-02-07T08:59:26.554Z,4.85
2023-02-07T09:00:11.322Z,4.85
2023-02-07T09:00:56.418Z,4.85
2023-02-07T09:03:13.547Z,4.85
2023-02-07T09:03:58.742Z,4.85
2023-02-07T09:04:41.605Z,4.85
2023-02-07T09:05:26.747Z,4.85
2023-02-07T09:06:14.625Z,31.24
2023-02-07T09:06:56.865Z,31.24
2023-02-07T09:07:41.967Z,31.24
2023-02-07T09:08:27.175Z,31.24
2023-02-07T09:09:11.658Z,31.24
2023-02-07T09:09:57.157Z,31.24
2023-02-07T09:10:47.543Z,31.24
2023-02-07T09:11:29.453Z,31.24
2023-02-07T09:12:11.720Z,7.00
2023-02-07T09:13:06.374Z,7.00
2023-02-07T09:15:13.081Z,7.00
2023-02-07T09:18:18.750Z,7.00
2023-02-07T09:23:36.232Z,2.28
2023-02-07T09:24:24.994Z,2.28
2023-02-07T09:25:43.353Z,2.47
2023-02-07T09:28:01.707Z,2.47
2023-02-07T09:30:29.280Z,2.47
2023-02-07T09:31:05.437Z,2.47
2023-02-07T09:32:49.857Z,2.02
2023-02-07T09:33:42.475Z,2.02
2023-02-07T09:34:20.346Z,2.02
2023-02-07T09:36:19.215Z,2.47
2023-02-07T09:37:12.593Z,2.13
2023-02-07T09:39:57.618Z,2.18
2023-02-07T09:41:49.282Z,2.23
2023-02-07T09:43:14.148Z,2.18
2023-02-07T09:44:06.750Z,1.96
2023-02-07T09:44:43.590Z,2.18
2023-02-07T09:48:08.408Z,1.90
2023-02-07T09:48:49.268Z,1.90
2023-02-07T09:49:34.232Z,1.90
2023-02-07T09:49:49.889Z,7.00
2023-02-07T09:50:19.111Z,1.90
2023-02-07T09:51:03.831Z,1.90
2023-02-07T09:51:48.725Z,1.90
2023-02-07T09:52:33.598Z,40.99
2023-02-07T09:53:19.103Z,40.99
2023-02-07T09:54:04.380Z,40.99
2023-02-07T09:54:49.321Z,40.99
2023-02-07T09:55:34.264Z,40.99
2023-02-07T09:56:19.631Z,40.99
2023-02-07T09:57:04.850Z,40.99
2023-02-07T09:57:49.433Z,40.99
2023-02-07T09:58:34.842Z,40.99
2023-02-07T09:59:19.716Z,40.99
2023-02-07T10:00:05.549Z,40.99
2023-02-07T10:00:50.006Z,40.99
2023-02-07T10:01:35.006Z,40.99
2023-02-07T10:02:20.123Z,40.99
2023-02-07T10:03:04.964Z,40.99
2023-02-07T10:03:50.351Z,40.99
2023-02-07T10:04:35.305Z,40.99
2023-02-07T10:05:20.404Z,40.99
2023-02-07T10:06:17.451Z,40.99
2023-02-07T10:06:50.155Z,40.99
2023-02-07T10:07:35.061Z,40.99
2023-02-07T10:08:20.319Z,40.99
2023-02-07T10:09:05.362Z,40.99
2023-02-07T10:09:50.533Z,40.99
2023-02-07T10:10:35.595Z,40.99
2023-02-07T10:11:20.807Z,40.99
2023-02-07T10:12:05.416Z,40.99
2023-02-07T10:12:50.789Z,40.99
2023-02-07T10:13:35.520Z,40.99
2023-02-07T10:14:20.389Z,40.99